sensor_id;sensor_type;location;lat;lon;timestamp;P1;durP1;ratioP1;P2;durP2;ratioP2
32788;SDS011;19141;48.980;8.410;2024-01-25T05:22:33;6.85;;;2.25;;
32788;SDS011;19141;48.980;8.410;2024-01-25T05:25:05;6.07;;;2.00;;
32788;SDS011;19141;48.980;8.410;2024-01-25T05:27:31;8.20;;;2.58;;
32788;SDS011;19141;48.980;8.410;2024-01-25T05:29:56;9.02;;;2.42;;
32788;SDS011;19141;48.980;8.410;2024-01-25T05:32:22;15.15;;;2.75;;
32788;SDS011;19141;48.980;8.410;2024-01-25T05:34:47;7.15;;;2.13;;
32788;SDS011;19141;48.980;8.410;2024-01-25T05:37:13;7.60;;;2.10;;
32788;SDS011;19141;48.980;8.410;2024-01-25T05:39:38;7.85;;;2.63;;
32788;SDS011;19141;48.980;8.410;2024-01-25T05:42:03;8.20;;;2.47;;
32788;SDS011;19141;48.980;8.410;2024-01-25T05:44:29;7.72;;;2.55;;
32788;SDS011;19141;48.980;8.410;2024-01-25T05:46:55;6.70;;;2.30;;
32788;SDS011;19141;48.980;8.410;2024-01-25T05:49:20;7.32;;;2.35;;
32788;SDS011;19141;48.980;8.410;2024-01-25T05:52:07;7.43;;;2.33;;
32788;SDS011;19141;48.980;8.410;2024-01-25T05:54:32;11.57;;;2.40;;
32788;SDS011;19141;48.980;8.410;2024-01-25T05:56:58;8.65;;;2.85;;
32788;SDS011;19141;48.980;8.410;2024-01-25T05:59:23;10.98;;;3.35;;
32788;SDS011;19141;48.980;8.410;2024-01-25T06:01:49;13.70;;;3.13;;
32788;SDS011;19141;48.980;8.410;2024-01-25T06:04:14;7.30;;;2.22;;
32788;SDS011;19141;48.980;8.410;2024-01-25T06:06:39;11.35;;;3.55;;
32788;SDS011;19141;48.980;8.410;2024-01-25T06:09:05;6.47;;;2.35;;
32788;SDS011;19141;48.980;8.410;2024-01-25T06:11:30;10.93;;;3.30;;
32788;SDS011;19141;48.980;8.410;2024-01-25T06:13:58;6.10;;;2.45;;
32788;SDS011;19141;48.980;8.410;2024-01-25T06:16:23;7.25;;;2.50;;
32788;SDS011;19141;48.980;8.410;2024-01-25T06:18:49;7.47;;;2.42;;
32788;SDS011;19141;48.980;8.410;2024-01-25T06:21:14;11.00;;;2.67;;
32788;SDS011;19141;48.980;8.410;2024-01-25T06:23:40;9.38;;;2.58;;
32788;SDS011;19141;48.980;8.410;2024-01-25T06:26:05;9.40;;;2.42;;
32788;SDS011;19141;48.980;8.410;2024-01-25T06:28:31;8.55;;;2.47;;
32788;SDS011;19141;48.980;8.410;2024-01-25T06:30:56;6.93;;;1.80;;
32788;SDS011;19141;48.980;8.410;2024-01-25T06:33:21;7.38;;;2.65;;
32788;SDS011;19141;48.980;8.410;2024-01-25T06:35:47;6.18;;;2.05;;
32788;SDS011;19141;48.980;8.410;2024-01-25T06:38:12;8.55;;;2.30;;
32788;SDS011;19141;48.980;8.410;2024-01-25T06:40:38;7.05;;;2.10;;
32788;SDS011;19141;48.980;8.410;2024-01-25T06:43:03;11.98;;;2.53;;
32788;SDS011;19141;48.980;8.410;2024-01-25T06:45:29;8.13;;;3.00;;
32788;SDS011;19141;48.980;8.410;2024-01-25T06:47:54;6.15;;;2.58;;
32788;SDS011;19141;48.980;8.410;2024-01-25T06:50:20;2.92;;;1.50;;
32788;SDS011;19141;48.980;8.410;2024-01-25T06:52:45;4.07;;;1.88;;
32788;SDS011;19141;48.980;8.410;2024-01-25T06:55:11;4.07;;;1.77;;
32788;SDS011;19141;48.980;8.410;2024-01-25T06:57:38;4.38;;;2.60;;
32788;SDS011;19141;48.980;8.410;2024-01-25T07:00:04;9.80;;;3.15;;
32788;SDS011;19141;48.980;8.410;2024-01-25T07:02:30;10.27;;;3.20;;
32788;SDS011;19141;48.980;8.410;2024-01-25T07:04:55;8.95;;;2.95;;
32788;SDS011;19141;48.980;8.410;2024-01-25T07:07:21;5.07;;;2.72;;
32788;SDS011;19141;48.980;8.410;2024-01-25T07:09:46;9.15;;;2.88;;
32788;SDS011;19141;48.980;8.410;2024-01-25T07:12:12;7.50;;;2.25;;
32788;SDS011;19141;48.980;8.410;2024-01-25T07:14:37;9.05;;;2.63;;
32788;SDS011;19141;48.980;8.410;2024-01-25T07:17:02;8.75;;;2.60;;
32788;SDS011;19141;48.980;8.410;2024-01-25T07:19:28;6.32;;;2.58;;
32788;SDS011;19141;48.980;8.410;2024-01-25T07:21:54;6.70;;;2.38;;
32788;SDS011;19141;48.980;8.410;2024-01-25T07:24:19;8.85;;;2.55;;
32788;SDS011;19141;48.980;8.410;2024-01-25T07:26:45;6.68;;;2.67;;
32788;SDS011;19141;48.980;8.410;2024-01-25T07:29:10;9.65;;;3.10;;
32788;SDS011;19141;48.980;8.410;2024-01-25T07:31:36;4.90;;;2.15;;
32788;SDS011;19141;48.980;8.410;2024-01-25T07:34:01;7.70;;;2.53;;
32788;SDS011;19141;48.980;8.410;2024-01-25T07:36:26;7.40;;;2.85;;
32788;SDS011;19141;48.980;8.410;2024-01-25T07:38:52;5.38;;;2.10;;
32788;SDS011;19141;48.980;8.410;2024-01-25T07:41:17;9.20;;;2.30;;
32788;SDS011;19141;48.980;8.410;2024-01-25T07:43:43;6.47;;;1.90;;
32788;SDS011;19141;48.980;8.410;2024-01-25T07:46:09;5.85;;;1.83;;
32788;SDS011;19141;48.980;8.410;2024-01-25T07:48:35;5.82;;;1.88;;
32788;SDS011;19141;48.980;8.410;2024-01-25T07:51:01;4.72;;;1.77;;
32788;SDS011;19141;48.980;8.410;2024-01-25T07:53:26;5.72;;;1.90;;
32788;SDS011;19141;48.980;8.410;2024-01-25T07:55:52;4.07;;;1.77;;
32788;SDS011;19141;48.980;8.410;2024-01-25T07:58:17;4.70;;;1.60;;
32788;SDS011;19141;48.980;8.410;2024-01-25T08:00:43;4.95;;;1.88;;
32788;SDS011;19141;48.980;8.410;2024-01-25T08:03:09;5.45;;;1.77;;
32788;SDS011;19141;48.980;8.410;2024-01-25T08:05:35;7.82;;;1.85;;
32788;SDS011;19141;48.980;8.410;2024-01-25T08:08:00;3.85;;;1.83;;
32788;SDS011;19141;48.980;8.410;2024-01-25T08:10:25;4.00;;;1.73;;
32788;SDS011;19141;48.980;8.410;2024-01-25T08:12:51;5.80;;;2.03;;
32788;SDS011;19141;48.980;8.410;2024-01-25T08:15:17;3.53;;;1.88;;
32788;SDS011;19141;48.980;8.410;2024-01-25T08:17:42;3.53;;;1.77;;
32788;SDS011;19141;48.980;8.410;2024-01-25T08:20:08;3.28;;;1.60;;
32788;SDS011;19141;48.980;8.410;2024-01-25T08:22:34;3.80;;;1.40;;
32788;SDS011;19141;48.980;8.410;2024-01-25T08:25:00;3.17;;;1.52;;
32788;SDS011;19141;48.980;8.410;2024-01-25T08:27:25;6.85;;;1.55;;
32788;SDS011;19141;48.980;8.410;2024-01-25T08:29:50;5.85;;;1.95;;
32788;SDS011;19141;48.980;8.410;2024-01-25T08:32:16;4.85;;;1.70;;
32788;SDS011;19141;48.980;8.410;2024-01-25T08:34:41;4.35;;;1.70;;
32788;SDS011;19141;48.980;8.410;2024-01-25T08:37:07;4.97;;;1.58;;
32788;SDS011;19141;48.980;8.410;2024-01-25T08:39:32;4.53;;;1.70;;
32788;SDS011;19141;48.980;8.410;2024-01-25T08:41:58;4.10;;;1.65;;
32788;SDS011;19141;48.980;8.410;2024-01-25T08:44:27;2.50;;;1.50;;
32788;SDS011;19141;48.980;8.410;2024-01-25T08:46:52;4.72;;;1.58;;
32788;SDS011;19141;48.980;8.410;2024-01-25T08:49:18;4.15;;;1.50;;
32788;SDS011;19141;48.980;8.410;2024-01-25T08:51:43;3.80;;;1.52;;
32788;SDS011;19141;48.980;8.410;2024-01-25T08:54:08;3.70;;;1.42;;
32788;SDS011;19141;48.980;8.410;2024-01-25T08:56:34;2.92;;;1.63;;
32788;SDS011;19141;48.980;8.410;2024-01-25T08:58:59;3.90;;;1.20;;
32788;SDS011;19141;48.980;8.410;2024-01-25T09:01:25;5.93;;;1.33;;
32788;SDS011;19141;48.980;8.410;2024-01-25T09:03:50;2.55;;;1.45;;
32788;SDS011;19141;48.980;8.410;2024-01-25T09:06:16;3.75;;;1.50;;
32788;SDS011;19141;48.980;8.410;2024-01-25T09:08:41;4.15;;;1.60;;
32788;SDS011;19141;48.980;8.410;2024-01-25T09:11:07;4.85;;;1.67;;
32788;SDS011;19141;48.980;8.410;2024-01-25T09:13:32;5.65;;;1.77;;
32788;SDS011;19141;48.980;8.410;2024-01-25T09:15:58;4.18;;;1.70;;
32788;SDS011;19141;48.980;8.410;2024-01-25T09:18:23;6.32;;;1.45;;
32788;SDS011;19141;48.980;8.410;2024-01-25T09:20:49;5.18;;;1.63;;
32788;SDS011;19141;48.980;8.410;2024-01-25T09:23:15;4.18;;;1.55;;
32788;SDS011;19141;48.980;8.410;2024-01-25T09:25:42;2.78;;;1.48;;
32788;SDS011;19141;48.980;8.410;2024-01-25T09:28:07;3.70;;;1.70;;
32788;SDS011;19141;48.980;8.410;2024-01-25T09:30:33;3.33;;;1.50;;
32788;SDS011;19141;48.980;8.410;2024-01-25T09:32:58;4.72;;;1.55;;
32788;SDS011;19141;48.980;8.410;2024-01-25T09:35:24;5.65;;;1.70;;
32788;SDS011;19141;48.980;8.410;2024-01-25T09:37:49;3.75;;;1.48;;
32788;SDS011;19141;48.980;8.410;2024-01-25T09:40:17;4.38;;;1.80;;
32788;SDS011;19141;48.980;8.410;2024-01-25T09:42:46;5.90;;;1.83;;
32788;SDS011;19141;48.980;8.410;2024-01-25T09:45:16;4.30;;;1.55;;
32788;SDS011;19141;48.980;8.410;2024-01-25T09:47:43;4.20;;;1.70;;
32788;SDS011;19141;48.980;8.410;2024-01-25T09:50:09;2.55;;;1.30;;
32788;SDS011;19141;48.980;8.410;2024-01-25T09:52:34;4.15;;;1.30;;
32788;SDS011;19141;48.980;8.410;2024-01-25T09:55:01;4.60;;;1.90;;
32788;SDS011;19141;48.980;8.410;2024-01-25T09:57:27;5.15;;;1.63;;
32788;SDS011;19141;48.980;8.410;2024-01-25T09:59:54;5.88;;;2.03;;
32788;SDS011;19141;48.980;8.410;2024-01-25T10:02:22;5.03;;;1.77;;
32788;SDS011;19141;48.980;8.410;2024-01-25T10:04:49;4.82;;;1.48;;
32788;SDS011;19141;48.980;8.410;2024-01-25T10:07:15;4.35;;;1.95;;
32788;SDS011;19141;48.980;8.410;2024-01-25T10:09:41;7.22;;;2.05;;
32788;SDS011;19141;48.980;8.410;2024-01-25T10:12:07;4.00;;;1.47;;
32788;SDS011;19141;48.980;8.410;2024-01-25T10:14:32;6.38;;;1.98;;
32788;SDS011;19141;48.980;8.410;2024-01-25T10:16:58;6.10;;;2.03;;
32788;SDS011;19141;48.980;8.410;2024-01-25T10:19:23;4.05;;;2.55;;
32788;SDS011;19141;48.980;8.410;2024-01-25T10:21:50;2.53;;;1.42;;
32788;SDS011;19141;48.980;8.410;2024-01-25T10:24:15;6.05;;;1.70;;
32788;SDS011;19141;48.980;8.410;2024-01-25T10:26:40;4.80;;;1.77;;
32788;SDS011;19141;48.980;8.410;2024-01-25T10:29:08;6.73;;;2.00;;
32788;SDS011;19141;48.980;8.410;2024-01-25T10:31:36;3.17;;;1.60;;
32788;SDS011;19141;48.980;8.410;2024-01-25T10:34:04;5.65;;;1.75;;
32788;SDS011;19141;48.980;8.410;2024-01-25T10:36:30;5.10;;;1.83;;
32788;SDS011;19141;48.980;8.410;2024-01-25T10:38:56;4.85;;;2.00;;
32788;SDS011;19141;48.980;8.410;2024-01-25T10:41:23;3.17;;;1.67;;
32788;SDS011;19141;48.980;8.410;2024-01-25T10:46:15;5.72;;;2.38;;
32788;SDS011;19141;48.980;8.410;2024-01-25T10:48:41;4.43;;;1.83;;
32788;SDS011;19141;48.980;8.410;2024-01-25T10:51:07;6.40;;;1.88;;
32788;SDS011;19141;48.980;8.410;2024-01-25T10:53:34;7.15;;;2.15;;
32788;SDS011;19141;48.980;8.410;2024-01-25T10:56:01;5.22;;;1.70;;
32788;SDS011;19141;48.980;8.410;2024-01-25T10:58:31;8.18;;;2.33;;
32788;SDS011;19141;48.980;8.410;2024-01-25T11:00:58;4.13;;;1.90;;
32788;SDS011;19141;48.980;8.410;2024-01-25T11:03:27;3.63;;;1.85;;
32788;SDS011;19141;48.980;8.410;2024-01-25T11:05:54;4.85;;;1.80;;
32788;SDS011;19141;48.980;8.410;2024-01-25T11:08:20;5.80;;;1.77;;
32788;SDS011;19141;48.980;8.410;2024-01-25T11:10:51;4.50;;;1.73;;
32788;SDS011;19141;48.980;8.410;2024-01-25T11:13:23;5.13;;;1.70;;
32788;SDS011;19141;48.980;8.410;2024-01-25T11:15:51;6.80;;;1.90;;
32788;SDS011;19141;48.980;8.410;2024-01-25T11:18:16;6.47;;;1.80;;
32788;SDS011;19141;48.980;8.410;2024-01-25T11:20:41;7.50;;;2.65;;
32788;SDS011;19141;48.980;8.410;2024-01-25T11:23:07;5.40;;;1.92;;
32788;SDS011;19141;48.980;8.410;2024-01-25T11:25:35;6.45;;;1.80;;
32788;SDS011;19141;48.980;8.410;2024-01-25T11:28:01;5.15;;;1.58;;
32788;SDS011;19141;48.980;8.410;2024-01-25T11:30:29;2.88;;;1.33;;
32788;SDS011;19141;48.980;8.410;2024-01-25T11:32:55;5.57;;;1.73;;
32788;SDS011;19141;48.980;8.410;2024-01-25T11:35:21;5.90;;;2.08;;
32788;SDS011;19141;48.980;8.410;2024-01-25T11:37:47;5.72;;;1.60;;
32788;SDS011;19141;48.980;8.410;2024-01-25T11:40:14;5.63;;;1.63;;
32788;SDS011;19141;48.980;8.410;2024-01-25T11:42:44;3.97;;;1.60;;
32788;SDS011;19141;48.980;8.410;2024-01-25T11:45:12;6.10;;;2.03;;
32788;SDS011;19141;48.980;8.410;2024-01-25T11:47:38;3.55;;;1.73;;
32788;SDS011;19141;48.980;8.410;2024-01-25T11:50:05;5.55;;;1.40;;
32788;SDS011;19141;48.980;8.410;2024-01-25T11:54:59;4.45;;;2.00;;
32788;SDS011;19141;48.980;8.410;2024-01-25T11:57:29;6.03;;;1.80;;
32788;SDS011;19141;48.980;8.410;2024-01-25T11:59:56;6.28;;;1.80;;
32788;SDS011;19141;48.980;8.410;2024-01-25T12:02:23;5.40;;;1.88;;
32788;SDS011;19141;48.980;8.410;2024-01-25T12:04:49;7.95;;;5.25;;
32788;SDS011;19141;48.980;8.410;2024-01-25T12:07:15;12.85;;;7.28;;
32788;SDS011;19141;48.980;8.410;2024-01-25T12:09:40;4.88;;;1.75;;
32788;SDS011;19141;48.980;8.410;2024-01-25T12:12:06;5.78;;;2.50;;
32788;SDS011;19141;48.980;8.410;2024-01-25T12:14:32;8.18;;;3.40;;
32788;SDS011;19141;48.980;8.410;2024-01-25T12:16:57;5.88;;;3.50;;
32788;SDS011;19141;48.980;8.410;2024-01-25T12:19:23;5.10;;;1.98;;
32788;SDS011;19141;48.980;8.410;2024-01-25T12:21:48;6.65;;;1.88;;
32788;SDS011;19141;48.980;8.410;2024-01-25T12:24:13;6.50;;;2.00;;
32788;SDS011;19141;48.980;8.410;2024-01-25T12:26:39;7.82;;;1.77;;
32788;SDS011;19141;48.980;8.410;2024-01-25T12:29:06;6.65;;;2.20;;
32788;SDS011;19141;48.980;8.410;2024-01-25T12:31:33;4.13;;;1.55;;
32788;SDS011;19141;48.980;8.410;2024-01-25T12:33:59;7.90;;;2.03;;
32788;SDS011;19141;48.980;8.410;2024-01-25T12:36:25;4.32;;;1.58;;
32788;SDS011;19141;48.980;8.410;2024-01-25T12:38:51;5.07;;;1.98;;
32788;SDS011;19141;48.980;8.410;2024-01-25T12:41:16;5.15;;;1.73;;
32788;SDS011;19141;48.980;8.410;2024-01-25T12:43:42;4.55;;;1.42;;
32788;SDS011;19141;48.980;8.410;2024-01-25T12:46:08;6.40;;;1.70;;
32788;SDS011;19141;48.980;8.410;2024-01-25T12:48:33;6.25;;;1.50;;
32788;SDS011;19141;48.980;8.410;2024-01-25T12:50:59;6.45;;;2.08;;
32788;SDS011;19141;48.980;8.410;2024-01-25T12:53:24;5.60;;;1.75;;
32788;SDS011;19141;48.980;8.410;2024-01-25T12:55:50;5.65;;;1.88;;
32788;SDS011;19141;48.980;8.410;2024-01-25T12:58:15;4.57;;;1.40;;
32788;SDS011;19141;48.980;8.410;2024-01-25T13:00:41;3.72;;;1.52;;
32788;SDS011;19141;48.980;8.410;2024-01-25T13:03:08;6.93;;;1.98;;
32788;SDS011;19141;48.980;8.410;2024-01-25T13:05:33;4.88;;;1.80;;
32788;SDS011;19141;48.980;8.410;2024-01-25T13:08:02;3.42;;;1.50;;
32788;SDS011;19141;48.980;8.410;2024-01-25T13:10:28;3.83;;;1.30;;
32788;SDS011;19141;48.980;8.410;2024-01-25T13:12:53;3.47;;;1.67;;
32788;SDS011;19141;48.980;8.410;2024-01-25T13:15:19;7.45;;;1.67;;
32788;SDS011;19141;48.980;8.410;2024-01-25T13:17:45;4.78;;;1.77;;
32788;SDS011;19141;48.980;8.410;2024-01-25T13:20:11;6.72;;;2.90;;
32788;SDS011;19141;48.980;8.410;2024-01-25T13:22:36;6.20;;;2.05;;
32788;SDS011;19141;48.980;8.410;2024-01-25T13:25:02;6.47;;;1.80;;
32788;SDS011;19141;48.980;8.410;2024-01-25T13:27:28;3.67;;;1.40;;
32788;SDS011;19141;48.980;8.410;2024-01-25T13:29:54;3.17;;;1.60;;
32788;SDS011;19141;48.980;8.410;2024-01-25T13:32:21;5.05;;;1.48;;
32788;SDS011;19141;48.980;8.410;2024-01-25T13:34:47;2.87;;;1.23;;
32788;SDS011;19141;48.980;8.410;2024-01-25T13:37:12;4.13;;;1.20;;
32788;SDS011;19141;48.980;8.410;2024-01-25T13:39:38;4.45;;;1.73;;
32788;SDS011;19141;48.980;8.410;2024-01-25T13:42:03;3.33;;;1.02;;
32788;SDS011;19141;48.980;8.410;2024-01-25T13:44:29;5.78;;;1.50;;
32788;SDS011;19141;48.980;8.410;2024-01-25T13:46:54;5.15;;;1.52;;
32788;SDS011;19141;48.980;8.410;2024-01-25T13:49:21;3.60;;;1.42;;
32788;SDS011;19141;48.980;8.410;2024-01-25T13:51:47;6.13;;;1.55;;
32788;SDS011;19141;48.980;8.410;2024-01-25T13:54:12;5.75;;;1.17;;
32788;SDS011;19141;48.980;8.410;2024-01-25T13:56:37;4.55;;;1.25;;
32788;SDS011;19141;48.980;8.410;2024-01-25T13:59:04;6.67;;;1.37;;
32788;SDS011;19141;48.980;8.410;2024-01-25T14:01:30;3.72;;;1.50;;
32788;SDS011;19141;48.980;8.410;2024-01-25T14:03:56;4.13;;;1.55;;
32788;SDS011;19141;48.980;8.410;2024-01-25T14:06:21;4.40;;;1.95;;
32788;SDS011;19141;48.980;8.410;2024-01-25T14:08:46;7.25;;;2.17;;
32788;SDS011;19141;48.980;8.410;2024-01-25T14:11:12;4.80;;;1.48;;
32788;SDS011;19141;48.980;8.410;2024-01-25T14:13:37;5.03;;;1.55;;
32788;SDS011;19141;48.980;8.410;2024-01-25T14:16:03;3.10;;;1.58;;
32788;SDS011;19141;48.980;8.410;2024-01-25T14:18:28;5.53;;;1.48;;
32788;SDS011;19141;48.980;8.410;2024-01-25T14:20:57;3.50;;;1.23;;
32788;SDS011;19141;48.980;8.410;2024-01-25T14:23:22;5.78;;;1.63;;
32788;SDS011;19141;48.980;8.410;2024-01-25T14:25:48;5.55;;;1.20;;
32788;SDS011;19141;48.980;8.410;2024-01-25T14:28:13;2.67;;;1.10;;
32788;SDS011;19141;48.980;8.410;2024-01-25T14:30:38;5.07;;;1.77;;
32788;SDS011;19141;48.980;8.410;2024-01-25T14:33:04;4.20;;;1.30;;
32788;SDS011;19141;48.980;8.410;2024-01-25T14:35:29;1.98;;;1.00;;
32788;SDS011;19141;48.980;8.410;2024-01-25T14:37:56;3.10;;;1.10;;
32788;SDS011;19141;48.980;8.410;2024-01-25T14:40:21;5.35;;;1.70;;
32788;SDS011;19141;48.980;8.410;2024-01-25T14:42:47;6.07;;;1.60;;
32788;SDS011;19141;48.980;8.410;2024-01-25T14:45:13;5.85;;;1.40;;
32788;SDS011;19141;48.980;8.410;2024-01-25T14:47:38;4.53;;;1.30;;
32788;SDS011;19141;48.980;8.410;2024-01-25T14:50:04;3.35;;;1.20;;
32788;SDS011;19141;48.980;8.410;2024-01-25T14:52:30;2.83;;;1.45;;
32788;SDS011;19141;48.980;8.410;2024-01-25T14:54:59;8.55;;;1.88;;
32788;SDS011;19141;48.980;8.410;2024-01-25T14:57:25;3.13;;;1.50;;
32788;SDS011;19141;48.980;8.410;2024-01-25T14:59:50;2.85;;;1.20;;
32788;SDS011;19141;48.980;8.410;2024-01-25T15:02:16;3.95;;;1.05;;
32788;SDS011;19141;48.980;8.410;2024-01-25T15:04:41;3.30;;;1.60;;
32788;SDS011;19141;48.980;8.410;2024-01-25T15:07:08;3.35;;;1.20;;
32788;SDS011;19141;48.980;8.410;2024-01-25T15:09:33;4.03;;;1.40;;
32788;SDS011;19141;48.980;8.410;2024-01-25T15:11:59;2.65;;;1.35;;
32788;SDS011;19141;48.980;8.410;2024-01-25T15:14:24;6.10;;;1.65;;
32788;SDS011;19141;48.980;8.410;2024-01-25T15:16:49;5.10;;;1.30;;
32788;SDS011;19141;48.980;8.410;2024-01-25T15:19:15;2.35;;;1.17;;
32788;SDS011;19141;48.980;8.410;2024-01-25T15:21:40;3.95;;;1.25;;
32788;SDS011;19141;48.980;8.410;2024-01-25T15:24:06;3.03;;;1.20;;
32788;SDS011;19141;48.980;8.410;2024-01-25T15:26:31;4.28;;;1.38;;
32788;SDS011;19141;48.980;8.410;2024-01-25T15:28:57;1.75;;;0.95;;
32788;SDS011;19141;48.980;8.410;2024-01-25T15:31:22;3.78;;;1.08;;
32788;SDS011;19141;48.980;8.410;2024-01-25T15:33:48;3.38;;;1.40;;
32788;SDS011;19141;48.980;8.410;2024-01-25T15:36:13;4.13;;;1.20;;
32788;SDS011;19141;48.980;8.410;2024-01-25T15:38:38;5.35;;;1.38;;
32788;SDS011;19141;48.980;8.410;2024-01-25T15:41:05;3.95;;;1.58;;
32788;SDS011;19141;48.980;8.410;2024-01-25T15:43:30;3.33;;;1.45;;
32788;SDS011;19141;48.980;8.410;2024-01-25T15:45:56;3.35;;;1.27;;
32788;SDS011;19141;48.980;8.410;2024-01-25T15:48:21;3.35;;;1.33;;
32788;SDS011;19141;48.980;8.410;2024-01-25T15:50:46;4.65;;;1.55;;
32788;SDS011;19141;48.980;8.410;2024-01-25T15:53:12;2.97;;;1.55;;
32788;SDS011;19141;48.980;8.410;2024-01-25T15:55:40;2.95;;;1.88;;
32788;SDS011;19141;48.980;8.410;2024-01-25T15:58:05;3.50;;;1.25;;
32788;SDS011;19141;48.980;8.410;2024-01-25T16:00:31;3.65;;;1.45;;
32788;SDS011;19141;48.980;8.410;2024-01-25T16:02:56;3.30;;;1.52;;
32788;SDS011;19141;48.980;8.410;2024-01-25T16:05:21;4.40;;;1.30;;
32788;SDS011;19141;48.980;8.410;2024-01-25T16:07:47;3.17;;;1.63;;
32788;SDS011;19141;48.980;8.410;2024-01-25T16:10:14;3.40;;;1.40;;
32788;SDS011;19141;48.980;8.410;2024-01-25T16:12:40;3.60;;;1.65;;
32788;SDS011;19141;48.980;8.410;2024-01-25T16:15:05;2.83;;;1.30;;
32788;SDS011;19141;48.980;8.410;2024-01-25T16:17:31;4.28;;;1.35;;
32788;SDS011;19141;48.980;8.410;2024-01-25T16:19:57;4.78;;;1.13;;
32788;SDS011;19141;48.980;8.410;2024-01-25T16:22:23;2.13;;;1.10;;
32788;SDS011;19141;48.980;8.410;2024-01-25T16:24:48;2.38;;;1.10;;
32788;SDS011;19141;48.980;8.410;2024-01-25T16:27:13;3.28;;;1.20;;
32788;SDS011;19141;48.980;8.410;2024-01-25T16:29:39;4.35;;;1.38;;
32788;SDS011;19141;48.980;8.410;2024-01-25T16:32:04;4.57;;;1.73;;
32788;SDS011;19141;48.980;8.410;2024-01-25T16:34:30;2.38;;;1.33;;
32788;SDS011;19141;48.980;8.410;2024-01-25T16:36:55;2.85;;;1.27;;
32788;SDS011;19141;48.980;8.410;2024-01-25T16:39:21;4.22;;;1.45;;
32788;SDS011;19141;48.980;8.410;2024-01-25T16:41:46;2.33;;;1.00;;
32788;SDS011;19141;48.980;8.410;2024-01-25T16:44:11;3.75;;;1.23;;
32788;SDS011;19141;48.980;8.410;2024-01-25T16:46:37;1.83;;;1.20;;
32788;SDS011;19141;48.980;8.410;2024-01-25T16:49:02;2.08;;;1.10;;
32788;SDS011;19141;48.980;8.410;2024-01-25T16:51:29;3.67;;;1.38;;
32788;SDS011;19141;48.980;8.410;2024-01-25T16:53:55;2.03;;;1.20;;
32788;SDS011;19141;48.980;8.410;2024-01-25T16:56:21;4.97;;;1.40;;
32788;SDS011;19141;48.980;8.410;2024-01-25T16:58:46;4.75;;;1.52;;
32788;SDS011;19141;48.980;8.410;2024-01-25T17:01:15;3.08;;;1.30;;
32788;SDS011;19141;48.980;8.410;2024-01-25T17:03:54;4.25;;;1.55;;
32788;SDS011;19141;48.980;8.410;2024-01-25T17:06:58;4.38;;;1.63;;
32788;SDS011;19141;48.980;8.410;2024-01-25T17:09:56;3.63;;;2.22;;
32788;SDS011;19141;48.980;8.410;2024-01-25T17:12:43;4.43;;;1.60;;
32788;SDS011;19141;48.980;8.410;2024-01-25T17:18:46;3.95;;;2.05;;
32788;SDS011;19141;48.980;8.410;2024-01-25T17:21:53;5.35;;;1.83;;
32788;SDS011;19141;48.980;8.410;2024-01-25T17:24:42;3.78;;;1.73;;
32788;SDS011;19141;48.980;8.410;2024-01-25T17:27:16;3.53;;;2.05;;
32788;SDS011;19141;48.980;8.410;2024-01-25T17:29:52;5.53;;;2.00;;
32788;SDS011;19141;48.980;8.410;2024-01-25T17:32:34;4.13;;;2.00;;
32788;SDS011;19141;48.980;8.410;2024-01-25T17:35:17;7.50;;;1.80;;
32788;SDS011;19141;48.980;8.410;2024-01-25T17:38:19;3.88;;;2.20;;
32788;SDS011;19141;48.980;8.410;2024-01-25T17:41:12;3.17;;;1.48;;
32788;SDS011;19141;48.980;8.410;2024-01-25T17:53:54;4.68;;;1.77;;
32788;SDS011;19141;48.980;8.410;2024-01-25T17:56:19;4.63;;;1.70;;
32788;SDS011;19141;48.980;8.410;2024-01-25T17:58:44;1.92;;;1.35;;
32788;SDS011;19141;48.980;8.410;2024-01-25T18:01:10;3.47;;;1.77;;
32788;SDS011;19141;48.980;8.410;2024-01-25T18:03:35;3.95;;;1.88;;
32788;SDS011;19141;48.980;8.410;2024-01-25T18:06:00;3.38;;;1.80;;
32788;SDS011;19141;48.980;8.410;2024-01-25T18:08:26;4.03;;;2.20;;
32788;SDS011;19141;48.980;8.410;2024-01-25T18:10:51;3.30;;;2.30;;
32788;SDS011;19141;48.980;8.410;2024-01-25T18:13:20;3.15;;;1.90;;
32788;SDS011;19141;48.980;8.410;2024-01-25T18:15:45;3.30;;;2.10;;
32788;SDS011;19141;48.980;8.410;2024-01-25T18:18:11;3.10;;;1.92;;
32788;SDS011;19141;48.980;8.410;2024-01-25T18:20:36;2.75;;;1.50;;
32788;SDS011;19141;48.980;8.410;2024-01-25T18:23:02;3.55;;;1.60;;
32788;SDS011;19141;48.980;8.410;2024-01-25T18:25:27;3.75;;;1.85;;
32788;SDS011;19141;48.980;8.410;2024-01-25T18:27:52;2.67;;;1.73;;
32788;SDS011;19141;48.980;8.410;2024-01-25T18:30:21;3.30;;;2.05;;
32788;SDS011;19141;48.980;8.410;2024-01-25T18:32:46;3.08;;;1.70;;
32788;SDS011;19141;48.980;8.410;2024-01-25T18:35:12;3.45;;;2.05;;
32788;SDS011;19141;48.980;8.410;2024-01-25T18:37:37;2.65;;;1.83;;
32788;SDS011;19141;48.980;8.410;2024-01-25T18:40:03;5.00;;;1.92;;
32788;SDS011;19141;48.980;8.410;2024-01-25T18:42:28;3.05;;;1.83;;
32788;SDS011;19141;48.980;8.410;2024-01-25T18:44:54;1.90;;;1.55;;
32788;SDS011;19141;48.980;8.410;2024-01-25T18:47:19;3.67;;;2.00;;
32788;SDS011;19141;48.980;8.410;2024-01-25T18:49:47;2.88;;;1.98;;
32788;SDS011;19141;48.980;8.410;2024-01-25T18:52:12;3.17;;;2.15;;
32788;SDS011;19141;48.980;8.410;2024-01-25T18:54:38;6.05;;;2.47;;
32788;SDS011;19141;48.980;8.410;2024-01-25T18:57:03;3.45;;;2.45;;
32788;SDS011;19141;48.980;8.410;2024-01-25T18:59:29;4.45;;;2.88;;
32788;SDS011;19141;48.980;8.410;2024-01-25T19:01:55;3.97;;;2.50;;
32788;SDS011;19141;48.980;8.410;2024-01-25T19:04:22;3.72;;;2.28;;
32788;SDS011;19141;48.980;8.410;2024-01-25T19:06:54;3.10;;;2.38;;
32788;SDS011;19141;48.980;8.410;2024-01-25T19:09:21;3.25;;;2.10;;
32788;SDS011;19141;48.980;8.410;2024-01-25T19:11:47;2.80;;;2.30;;
32788;SDS011;19141;48.980;8.410;2024-01-25T19:14:13;3.10;;;2.45;;
32788;SDS011;19141;48.980;8.410;2024-01-25T19:16:38;3.47;;;2.75;;
32788;SDS011;19141;48.980;8.410;2024-01-25T19:19:04;6.20;;;2.92;;
32788;SDS011;19141;48.980;8.410;2024-01-25T19:21:29;3.50;;;3.08;;
32788;SDS011;19141;48.980;8.410;2024-01-25T19:23:55;5.07;;;3.33;;
32788;SDS011;19141;48.980;8.410;2024-01-25T19:26:21;4.78;;;3.15;;
32788;SDS011;19141;48.980;8.410;2024-01-25T19:28:46;3.72;;;2.95;;
32788;SDS011;19141;48.980;8.410;2024-01-25T19:31:11;4.10;;;2.63;;
32788;SDS011;19141;48.980;8.410;2024-01-25T19:33:39;5.38;;;3.00;;
32788;SDS011;19141;48.980;8.410;2024-01-25T19:36:05;3.50;;;2.63;;
32788;SDS011;19141;48.980;8.410;2024-01-25T19:38:30;4.18;;;2.78;;
32788;SDS011;19141;48.980;8.410;2024-01-25T19:40:56;3.85;;;2.90;;
32788;SDS011;19141;48.980;8.410;2024-01-25T19:43:21;7.65;;;3.05;;
32788;SDS011;19141;48.980;8.410;2024-01-25T19:45:47;4.55;;;2.63;;
32788;SDS011;19141;48.980;8.410;2024-01-25T19:48:12;3.58;;;2.58;;
32788;SDS011;19141;48.980;8.410;2024-01-25T19:50:38;2.70;;;2.17;;
32788;SDS011;19141;48.980;8.410;2024-01-25T19:53:04;4.13;;;1.95;;
32788;SDS011;19141;48.980;8.410;2024-01-25T19:55:32;3.10;;;2.00;;
32788;SDS011;19141;48.980;8.410;2024-01-25T19:57:58;3.03;;;2.30;;
32788;SDS011;19141;48.980;8.410;2024-01-25T20:00:24;6.15;;;2.58;;
32788;SDS011;19141;48.980;8.410;2024-01-25T20:02:50;4.13;;;2.20;;
32788;SDS011;19141;48.980;8.410;2024-01-25T20:05:16;3.83;;;1.92;;
32788;SDS011;19141;48.980;8.410;2024-01-25T20:07:42;4.75;;;2.10;;
32788;SDS011;19141;48.980;8.410;2024-01-25T20:10:07;3.83;;;2.10;;
32788;SDS011;19141;48.980;8.410;2024-01-25T20:12:35;3.50;;;2.13;;
32788;SDS011;19141;48.980;8.410;2024-01-25T20:15:00;3.13;;;2.20;;
32788;SDS011;19141;48.980;8.410;2024-01-25T20:17:25;4.68;;;2.70;;
32788;SDS011;19141;48.980;8.410;2024-01-25T20:19:51;4.15;;;3.28;;
32788;SDS011;19141;48.980;8.410;2024-01-25T20:22:17;5.82;;;3.35;;
32788;SDS011;19141;48.980;8.410;2024-01-25T20:24:42;4.85;;;3.75;;